Time;durP1;ratioP1;P1;durP2;ratioP2;P2;SDS_P1;SDS_P2;PMS_P1;PMS_P2;Temp;Humidity;BMP_temperature;BMP_pressure;BME280_temperature;BME280_humidity;BME280_pressure;Samples;Min_cycle;Max_cycle;Signal;HPM_P1;HPM_P2
2023/06/21 00:00:47;;;;;;;18.00;12.85;;;19.50;99.90;;;;;;5119148;28;20062;-58
2023/06/21 00:03:13;;;;;;;17.05;12.90;;;19.50;99.90;;;;;;5118951;28;20047;-58
2023/06/21 00:05:39;;;;;;;17.33;13.88;;;19.50;99.90;;;;;;5119831;28;20035;-59
2023/06/21 00:08:05;;;;;;;18.35;13.75;;;19.40;99.90;;;;;;5119136;28;20097;-59
2023/06/21 00:10:31;;;;;;;16.58;13.25;;;19.40;99.90;;;;;;5119365;28;20043;-58
2023/06/21 00:12:58;;;;;;;15.95;14.25;;;19.50;99.90;;;;;;5119491;28;20082;-59
2023/06/21 00:15:24;;;;;;;15.77;14.02;;;19.50;99.90;;;;;;5118679;28;20035;-58
2023/06/21 00:17:51;;;;;;;18.77;14.23;;;19.50;99.90;;;;;;5119131;28;20036;-58
2023/06/21 00:20:17;;;;;;;17.10;14.45;;;19.50;99.90;;;;;;5119053;28;20432;-59
2023/06/21 00:22:46;;;;;;;19.00;14.68;;;19.50;99.90;;;;;;5119490;28;20123;-58
2023/06/21 00:25:13;;;;;;;17.20;14.93;;;19.50;99.90;;;;;;5118657;28;20040;-58
2023/06/21 00:27:42;;;;;;;16.48;14.45;;;19.40;99.90;;;;;;5118759;28;20054;-58
2023/06/21 00:30:08;;;;;;;17.17;15.20;;;19.50;99.90;;;;;;5118420;28;20598;-58
2023/06/21 00:32:34;;;;;;;17.85;14.30;;;19.50;99.90;;;;;;5118443;28;20111;-56
2023/06/21 00:34:59;;;;;;;19.00;15.65;;;19.50;99.90;;;;;;5118621;28;20044;-58
2023/06/21 00:37:28;;;;;;;18.27;16.30;;;19.40;99.90;;;;;;5118612;28;20508;-58
2023/06/21 00:39:53;;;;;;;19.48;15.40;;;19.40;99.90;;;;;;5119005;28;20184;-58
2023/06/21 00:42:19;;;;;;;19.85;17.75;;;19.40;99.90;;;;;;5118252;28;20055;-58
2023/06/21 00:44:45;;;;;;;18.65;16.30;;;19.50;99.90;;;;;;5118602;28;20043;-58
2023/06/21 00:47:10;;;;;;;21.67;16.67;;;19.40;99.90;;;;;;5117903;28;20044;-58
2023/06/21 00:49:36;;;;;;;19.08;16.88;;;19.50;99.90;;;;;;5118472;28;20381;-57
2023/06/21 00:52:05;;;;;;;23.02;17.33;;;19.50;99.90;;;;;;5105578;28;20440;-57
2023/06/21 00:54:34;;;;;;;22.35;17.73;;;19.40;99.90;;;;;;5114227;28;20035;-58
2023/06/21 00:57:01;;;;;;;19.38;17.10;;;19.50;99.90;;;;;;5098212;28;20066;-58
2023/06/21 00:59:28;;;;;;;21.67;17.83;;;19.40;99.90;;;;;;5097785;28;20060;-58
2023/06/21 01:01:58;;;;;;;20.58;17.60;;;19.40;99.90;;;;;;5098275;28;20040;-57
2023/06/21 01:04:25;;;;;;;21.90;18.35;;;19.40;99.90;;;;;;5098055;28;20099;-56
2023/06/21 01:07:06;;;;;;;21.40;18.40;;;19.40;99.90;;;;;;5097790;28;20071;-57
2023/06/21 01:09:50;;;;;;;20.30;18.10;;;19.40;99.90;;;;;;5097817;28;20036;-56
2023/06/21 01:12:22;;;;;;;21.23;18.30;;;19.40;99.90;;;;;;5097788;28;20051;-58
2023/06/21 01:14:55;;;;;;;22.27;19.15;;;19.40;99.90;;;;;;5098238;28;20157;-58
2023/06/21 01:17:22;;;;;;;21.67;18.70;;;19.40;99.90;;;;;;5097693;28;20055;-58
2023/06/21 01:19:51;;;;;;;21.25;18.30;;;19.30;99.90;;;;;;5097842;28;20045;-58
2023/06/21 01:22:40;;;;;;;26.40;20.02;;;19.30;99.90;;;;;;5097860;28;20048;-58
2023/06/21 01:25:36;;;;;;;23.67;18.58;;;19.20;99.90;;;;;;5097553;28;20048;-59
2023/06/21 01:28:45;;;;;;;23.77;19.98;;;19.20;99.90;;;;;;5097829;28;20056;-58
2023/06/21 01:31:14;;;;;;;24.40;19.33;;;19.30;99.90;;;;;;5098094;28;20147;-57
2023/06/21 01:33:41;;;;;;;24.48;20.45;;;19.20;99.90;;;;;;5097005;28;20044;-58
2023/06/21 01:36:09;;;;;;;25.77;21.48;;;19.20;99.90;;;;;;5097857;28;20109;-58
2023/06/21 01:38:35;;;;;;;24.73;20.73;;;19.20;99.90;;;;;;5097610;28;20088;-58
2023/06/21 01:41:01;;;;;;;26.52;21.80;;;19.20;99.90;;;;;;5097495;28;20065;-58
2023/06/21 01:43:29;;;;;;;25.65;20.17;;;19.30;99.90;;;;;;5097344;28;20907;-58
2023/06/21 01:45:56;;;;;;;23.55;20.00;;;19.30;99.90;;;;;;5097587;28;20036;-58
2023/06/21 01:48:23;;;;;;;25.73;20.58;;;19.20;99.90;;;;;;5098019;28;20054;-58
2023/06/21 01:50:50;;;;;;;27.00;20.50;;;19.30;99.90;;;;;;5097321;28;20525;-57
2023/06/21 01:53:18;;;;;;;26.05;20.83;;;19.20;99.90;;;;;;5097311;28;21132;-57
2023/06/21 01:55:48;;;;;;;24.17;20.55;;;19.10;99.90;;;;;;5097540;28;20051;-58
2023/06/21 01:58:15;;;;;;;23.85;20.23;;;19.10;99.90;;;;;;5097892;28;20032;-57
2023/06/21 02:00:42;;;;;;;26.15;20.58;;;19.20;99.90;;;;;;5100977;28;20052;-58
2023/06/21 02:03:13;;;;;;;28.17;21.88;;;19.20;99.90;;;;;;5100992;28;20040;-57
2023/06/21 02:05:42;;;;;;;26.55;20.58;;;19.20;99.90;;;;;;5101431;28;20065;-57
2023/06/21 02:08:15;;;;;;;26.08;21.88;;;19.10;99.90;;;;;;5101003;28;20070;-57
2023/06/21 02:10:42;;;;;;;25.30;20.63;;;19.00;99.90;;;;;;5101199;28;20055;-57
2023/06/21 02:13:08;;;;;;;28.27;22.25;;;19.10;99.90;;;;;;5101087;28;20052;-57
2023/06/21 02:15:34;;;;;;;27.98;21.40;;;19.00;99.90;;;;;;5101135;28;20058;-58
2023/06/21 02:18:01;;;;;;;28.13;22.58;;;19.20;99.90;;;;;;5101186;28;20126;-57
2023/06/21 02:20:28;;;;;;;28.85;22.48;;;19.10;99.90;;;;;;5099270;28;20044;-58
2023/06/21 02:22:54;;;;;;;30.02;21.73;;;19.20;99.90;;;;;;5101458;28;20087;-58
2023/06/21 02:25:21;;;;;;;28.63;21.38;;;19.10;99.90;;;;;;5100710;28;20778;-58
2023/06/21 02:27:47;;;;;;;29.50;23.35;;;19.20;99.90;;;;;;5100750;28;20063;-57
2023/06/21 02:30:13;;;;;;;27.77;22.10;;;19.20;99.90;;;;;;5100826;28;20040;-58
2023/06/21 02:32:39;;;;;;;29.38;21.67;;;19.10;99.90;;;;;;5100462;28;20035;-57
2023/06/21 02:35:05;;;;;;;27.70;23.75;;;19.20;99.90;;;;;;5100341;28;20075;-58
2023/06/21 02:37:31;;;;;;;29.20;23.90;;;19.10;99.90;;;;;;5100315;28;20040;-57
2023/06/21 02:39:57;;;;;;;28.17;22.60;;;19.10;99.90;;;;;;5101140;28;20047;-57
2023/06/21 02:42:25;;;;;;;30.05;22.80;;;19.10;99.90;;;;;;5100242;28;20113;-57
2023/06/21 02:44:51;;;;;;;27.58;22.25;;;19.10;99.90;;;;;;5098974;28;20059;-57
2023/06/21 02:47:16;;;;;;;30.48;24.13;;;19.10;99.90;;;;;;5100505;28;20172;-57
2023/06/21 02:49:42;;;;;;;28.48;22.60;;;19.10;99.90;;;;;;5100271;28;20071;-57
2023/06/21 02:52:08;;;;;;;29.17;22.33;;;19.00;99.90;;;;;;5100419;28;20040;-58
2023/06/21 02:54:33;;;;;;;30.35;23.77;;;18.90;99.90;;;;;;5099922;28;20078;-58
2023/06/21 02:56:59;;;;;;;30.17;24.38;;;19.10;99.90;;;;;;5100470;28;20562;-58
2023/06/21 02:59:28;;;;;;;31.73;24.73;;;19.00;99.90;;;;;;5099915;28;20097;-58
2023/06/21 03:01:55;;;;;;;32.33;24.98;;;19.00;99.90;;;;;;5100187;28;20032;-58
2023/06/21 03:04:21;;;;;;;32.28;26.45;;;19.00;99.90;;;;;;5100000;28;20039;-58
2023/06/21 03:06:46;;;;;;;31.75;25.98;;;19.00;99.90;;;;;;5099797;28;20039;-57
2023/06/21 03:09:12;;;;;;;36.30;26.90;;;19.00;99.90;;;;;;5098988;28;20044;-58
2023/06/21 03:11:38;;;;;;;35.92;25.35;;;18.80;99.90;;;;;;5099355;28;20044;-57
2023/06/21 03:14:03;;;;;;;32.20;24.90;;;18.90;99.90;;;;;;5099471;28;20535;-57
2023/06/21 03:16:30;;;;;;;36.50;27.30;;;18.90;99.90;;;;;;5098095;28;20028;-58
2023/06/21 03:18:55;;;;;;;34.00;26.00;;;18.80;99.90;;;;;;5099813;28;20160;-58
2023/06/21 03:21:22;;;;;;;34.28;27.20;;;18.80;99.90;;;;;;5099867;28;20103;-58
2023/06/21 03:23:48;;;;;;;35.10;28.20;;;18.80;99.90;;;;;;5099697;28;20055;-57
2023/06/21 03:26:14;;;;;;;39.33;28.38;;;18.70;99.90;;;;;;5099607;28;20047;-58
2023/06/21 03:28:41;;;;;;;34.78;27.65;;;18.70;99.90;;;;;;5099290;28;20051;-58
2023/06/21 03:31:07;;;;;;;36.40;28.38;;;18.70;99.90;;;;;;5098245;28;20063;-58
2023/06/21 03:33:32;;;;;;;35.22;26.83;;;18.60;99.90;;;;;;5098971;28;20826;-57
2023/06/21 03:35:58;;;;;;;35.10;26.50;;;18.60;99.90;;;;;;5104231;28;20054;-57
2023/06/21 03:38:24;;;;;;;35.83;28.35;;;18.60;99.90;;;;;;5119837;28;20032;-58
2023/06/21 03:40:50;;;;;;;36.45;27.67;;;18.60;99.90;;;;;;5119648;28;20122;-57
2023/06/21 03:43:16;;;;;;;35.42;28.60;;;18.60;99.90;;;;;;5119341;28;20468;-58
2023/06/21 03:45:42;;;;;;;37.83;28.88;;;18.60;99.90;;;;;;5119747;28;20036;-57
2023/06/21 03:48:08;;;;;;;38.97;28.05;;;18.60;99.90;;;;;;5119680;28;20040;-58
2023/06/21 03:50:34;;;;;;;37.13;28.83;;;18.70;99.90;;;;;;5119388;28;20055;-57
2023/06/21 03:53:00;;;;;;;37.03;27.98;;;18.60;99.90;;;;;;5119678;28;20042;-58
2023/06/21 03:55:26;;;;;;;39.50;29.67;;;18.60;99.90;;;;;;5119613;28;20040;-59
2023/06/21 03:57:51;;;;;;;37.08;28.65;;;18.50;99.90;;;;;;5119354;28;20038;-59
2023/06/21 04:00:18;;;;;;;37.40;28.90;;;18.50;99.90;;;;;;5119009;28;20043;-58
2023/06/21 04:02:44;;;;;;;39.53;29.40;;;18.50;99.90;;;;;;5119410;28;20080;-59
2023/06/21 04:05:10;;;;;;;37.47;28.67;;;18.50;99.90;;;;;;5119340;28;20035;-58
2023/06/21 04:07:37;;;;;;;40.25;30.42;;;18.40;99.90;;;;;;5119071;28;20142;-59
2023/06/21 04:10:03;;;;;;;42.15;30.25;;;18.50;99.90;;;;;;5119792;28;20039;-59
2023/06/21 04:12:30;;;;;;;39.85;28.48;;;18.40;99.90;;;;;;5119230;28;20112;-58
2023/06/21 04:14:57;;;;;;;37.30;29.27;;;18.50;99.90;;;;;;5118921;28;20047;-59
2023/06/21 04:17:23;;;;;;;39.30;28.67;;;18.40;99.90;;;;;;5118967;28;20048;-59
2023/06/21 04:19:49;;;;;;;40.25;30.42;;;18.40;99.90;;;;;;5119203;28;20051;-58
2023/06/21 04:22:14;;;;;;;37.75;28.90;;;18.50;99.90;;;;;;5118266;28;20035;-59
2023/06/21 04:24:40;;;;;;;38.13;29.00;;;18.50;99.90;;;;;;5118728;28;20069;-59
2023/06/21 04:27:06;;;;;;;37.95;27.83;;;18.50;99.90;;;;;;5118982;28;20495;-59
2023/06/21 04:29:40;;;;;;;42.10;29.30;;;18.50;99.90;;;;;;5118592;28;20093;-58
2023/06/21 04:32:06;;;;;;;39.90;27.90;;;18.40;99.90;;;;;;5118672;28;20058;-59
2023/06/21 04:34:33;;;;;;;37.90;27.30;;;18.30;99.90;;;;;;5117204;28;20032;-59
2023/06/21 04:36:58;;;;;;;35.38;26.10;;;18.50;99.90;;;;;;5118648;28;20094;-59
2023/06/21 04:39:24;;;;;;;35.92;25.02;;;18.60;99.90;;;;;;5118789;28;20047;-59
2023/06/21 04:41:52;;;;;;;35.55;25.20;;;18.50;99.90;;;;;;5118396;28;20039;-59
2023/06/21 04:44:17;;;;;;;36.20;23.85;;;18.50;99.90;;;;;;5117393;28;20600;-59
2023/06/21 04:46:46;;;;;;;33.47;22.83;;;18.50;99.90;;;;;;5104805;28;20036;-58
2023/06/21 04:49:12;;;;;;;31.92;21.88;;;18.50;99.90;;;;;;5102095;28;20552;-59
2023/06/21 04:51:38;;;;;;;31.60;21.80;;;18.40;99.90;;;;;;5099911;28;20061;-58
2023/06/21 04:54:06;;;;;;;33.58;21.00;;;18.60;99.90;;;;;;5118413;28;20039;-58
2023/06/21 04:56:31;;;;;;;30.85;21.02;;;18.40;99.90;;;;;;5118320;28;20035;-58
2023/06/21 04:58:57;;;;;;;30.52;21.20;;;18.50;99.90;;;;;;5117989;28;20167;-59
2023/06/21 05:01:23;;;;;;;30.15;19.50;;;18.50;99.90;;;;;;5118762;28;20044;-59
2023/06/21 05:03:51;;;;;;;30.58;19.80;;;18.60;99.90;;;;;;5118162;28;20126;-58
2023/06/21 05:06:20;;;;;;;33.17;20.85;;;18.50;99.90;;;;;;5118335;28;20036;-59
2023/06/21 05:08:46;;;;;;;27.67;18.35;;;18.40;99.90;;;;;;5118216;28;20103;-59
2023/06/21 05:11:12;;;;;;;29.55;19.23;;;18.40;99.90;;;;;;5118088;28;20084;-58
2023/06/21 05:13:37;;;;;;;28.55;18.67;;;18.40;99.90;;;;;;5118331;28;20040;-59
2023/06/21 05:16:03;;;;;;;29.35;17.80;;;18.50;99.90;;;;;;5117023;28;20058;-59
2023/06/21 05:18:29;;;;;;;27.40;17.95;;;18.60;99.90;;;;;;5118343;28;20043;-58
2023/06/21 05:20:55;;;;;;;30.42;17.98;;;18.70;99.90;;;;;;5118030;28;20047;-59
2023/06/21 05:23:21;;;;;;;30.25;18.40;;;18.70;99.90;;;;;;5118244;28;20056;-58
2023/06/21 05:25:47;;;;;;;27.52;17.25;;;18.60;99.90;;;;;;5117881;28;20044;-58
2023/06/21 05:28:12;;;;;;;24.23;16.35;;;18.60;99.90;;;;;;5117906;28;20055;-58
2023/06/21 05:30:38;;;;;;;24.30;14.90;;;18.80;99.90;;;;;;5117843;28;20077;-58
2023/06/21 05:33:04;;;;;;;21.25;13.93;;;18.70;99.90;;;;;;5113540;28;20052;-59
2023/06/21 05:35:29;;;;;;;23.05;14.80;;;18.80;99.90;;;;;;5119211;28;20048;-58
2023/06/21 05:37:55;;;;;;;25.00;14.10;;;18.70;99.90;;;;;;5118652;28;20047;-59
2023/06/21 05:40:21;;;;;;;25.60;15.75;;;18.80;99.90;;;;;;5118817;28;20051;-58
2023/06/21 05:42:47;;;;;;;25.02;14.27;;;18.60;99.90;;;;;;5118678;28;20079;-58
2023/06/21 05:45:13;;;;;;;25.25;14.18;;;18.80;99.90;;;;;;5117990;28;20044;-58
2023/06/21 05:47:38;;;;;;;24.25;14.65;;;18.70;99.90;;;;;;5118480;28;20036;-59
2023/06/21 05:50:05;;;;;;;26.50;15.35;;;18.60;99.90;;;;;;5118436;28;20047;-59
2023/06/21 05:52:30;;;;;;;23.55;14.60;;;18.70;99.90;;;;;;5119073;28;20043;-58
2023/06/21 05:54:56;;;;;;;23.45;14.38;;;18.60;99.90;;;;;;5117841;28;20051;-58
2023/06/21 05:57:24;;;;;;;25.05;14.68;;;18.70;99.90;;;;;;5118709;28;20051;-58
2023/06/21 05:59:50;;;;;;;22.48;15.75;;;18.80;99.90;;;;;;5118562;28;20047;-58
2023/06/21 06:02:15;;;;;;;26.38;17.38;;;18.80;99.90;;;;;;5117007;28;20116;-58
2023/06/21 06:04:41;;;;;;;26.65;17.13;;;18.90;99.90;;;;;;5104600;28;20127;-59
2023/06/21 06:07:07;;;;;;;28.67;17.85;;;18.90;99.90;;;;;;5104242;28;20051;-58
2023/06/21 06:09:33;;;;;;;24.17;15.85;;;18.80;99.90;;;;;;5103693;28;20048;-58
2023/06/21 06:11:58;;;;;;;25.77;17.00;;;18.90;99.90;;;;;;5108243;28;20100;-58
2023/06/21 06:14:24;;;;;;;27.33;17.45;;;18.90;99.90;;;;;;5115591;28;20054;-58
2023/06/21 06:16:50;;;;;;;27.08;16.67;;;18.90;99.90;;;;;;5116217;28;20040;-58
2023/06/21 06:19:16;;;;;;;24.05;17.15;;;19.00;99.90;;;;;;5117113;28;20324;-58
2023/06/21 06:21:42;;;;;;;26.17;17.58;;;19.10;99.90;;;;;;5117193;28;20027;-58
2023/06/21 06:24:07;;;;;;;28.80;18.00;;;19.30;99.90;;;;;;5117182;28;20031;-59
2023/06/21 06:26:33;;;;;;;28.73;18.90;;;19.40;99.90;;;;;;5117575;27;20035;-58
2023/06/21 06:28:59;;;;;;;28.58;19.20;;;19.50;99.90;;;;;;5117773;28;20047;-58
2023/06/21 06:31:26;;;;;;;27.23;19.48;;;19.30;99.90;;;;;;5117787;28;20071;-58
2023/06/21 06:33:52;;;;;;;26.98;18.65;;;19.30;99.90;;;;;;5106508;28;20052;-58
2023/06/21 06:36:19;;;;;;;27.00;18.35;;;19.50;99.90;;;;;;5108719;28;20052;-58
2023/06/21 06:38:49;;;;;;;27.23;18.33;;;19.60;99.90;;;;;;5108313;28;20429;-58
2023/06/21 06:41:15;;;;;;;24.48;19.10;;;19.80;99.90;;;;;;5097041;28;20538;-58
2023/06/21 06:43:41;;;;;;;25.05;18.15;;;19.60;99.90;;;;;;5096356;28;20043;-58
2023/06/21 06:46:07;;;;;;;25.55;18.27;;;19.60;99.90;;;;;;5095962;28;20044;-58
2023/06/21 06:48:32;;;;;;;24.75;17.17;;;19.70;99.90;;;;;;5097490;28;20032;-58
2023/06/21 06:50:58;;;;;;;23.33;17.35;;;19.90;99.90;;;;;;5096700;28;20064;-58
2023/06/21 06:53:24;;;;;;;22.92;16.17;;;19.80;99.90;;;;;;5096847;28;20040;-58
2023/06/21 06:55:54;;;;;;;20.35;15.02;;;19.90;99.90;;;;;;5098635;28;20084;-58
2023/06/21 06:58:21;;;;;;;22.33;15.80;;;20.00;99.90;;;;;;5103776;28;20063;-58
2023/06/21 07:00:48;;;;;;;25.45;14.60;;;20.00;99.90;;;;;;5105678;28;20048;-58
2023/06/21 07:03:14;;;;;;;23.98;15.68;;;20.20;99.90;;;;;;5096353;28;20101;-59
2023/06/21 07:05:44;;;;;;;20.95;14.55;;;20.10;99.90;;;;;;5097015;28;20044;-57
2023/06/21 07:08:11;;;;;;;21.08;14.75;;;20.00;99.90;;;;;;5101219;28;20035;-58
2023/06/21 07:10:37;;;;;;;18.95;14.60;;;20.40;99.90;;;;;;5105453;27;20047;-59
2023/06/21 07:13:02;;;;;;;17.15;12.77;;;20.50;99.90;;;;;;5102630;28;20115;-59
2023/06/21 07:15:28;;;;;;;19.48;12.98;;;20.30;99.90;;;;;;5096600;28;20062;-58
2023/06/21 07:17:55;;;;;;;19.35;13.10;;;20.20;99.90;;;;;;5095021;28;20051;-58
2023/06/21 07:20:21;;;;;;;17.67;11.60;;;20.40;99.90;;;;;;5095615;28;20040;-59
2023/06/21 07:22:46;;;;;;;14.82;11.13;;;20.60;99.90;;;;;;5114826;28;20053;-60
2023/06/21 07:25:12;;;;;;;15.30;11.15;;;20.60;99.90;;;;;;5116401;28;20123;-59
2023/06/21 07:27:38;;;;;;;19.10;12.57;;;20.80;99.90;;;;;;5116236;28;20067;-55
2023/06/21 07:30:05;;;;;;;16.42;11.32;;;20.60;99.90;;;;;;5116400;28;20058;-58
2023/06/21 07:32:31;;;;;;;14.50;10.55;;;20.50;99.90;;;;;;5111699;28;20204;-59
2023/06/21 07:34:58;;;;;;;16.38;10.68;;;20.60;99.90;;;;;;5106956;28;20784;-58
2023/06/21 07:37:24;;;;;;;14.18;10.30;;;20.40;99.90;;;;;;5112646;28;20043;-58
2023/06/21 07:39:49;;;;;;;14.40;9.98;;;20.30;99.90;;;;;;5100347;28;20100;-59
2023/06/21 07:42:16;;;;;;;13.52;8.80;;;20.40;99.90;;;;;;5096762;28;20075;-58
2023/06/21 07:44:42;;;;;;;13.90;10.00;;;20.40;99.90;;;;;;5102622;28;20040;-59
2023/06/21 07:47:07;;;;;;;13.73;10.02;;;20.20;99.90;;;;;;5105510;28;20092;-59
2023/06/21 07:49:33;;;;;;;14.40;9.75;;;20.30;99.90;;;;;;5102441;28;20044;-59
2023/06/21 07:51:59;;;;;;;15.60;10.60;;;20.60;99.90;;;;;;5101530;28;20043;-58
2023/06/21 07:54:24;;;;;;;16.77;11.35;;;20.80;99.90;;;;;;5101954;27;20048;-59
2023/06/21 07:56:50;;;;;;;16.35;10.27;;;20.70;99.90;;;;;;5100409;28;20584;-59
2023/06/21 07:59:16;;;;;;;15.20;10.15;;;20.70;99.90;;;;;;5097711;28;20056;-58
2023/06/21 08:01:41;;;;;;;14.02;8.75;;;20.80;99.90;;;;;;5105905;28;20139;-59
2023/06/21 08:04:07;;;;;;;12.35;8.13;;;21.00;99.90;;;;;;5106996;28;20136;-58
2023/06/21 08:06:33;;;;;;;13.20;8.98;;;21.10;99.90;;;;;;5110843;28;20116;-58
2023/06/21 08:08:58;;;;;;;13.50;8.27;;;21.20;99.90;;;;;;5106987;28;20707;-58
2023/06/21 08:11:26;;;;;;;12.77;8.43;;;21.00;99.90;;;;;;5109536;28;20076;-58
2023/06/21 08:13:52;;;;;;;12.77;9.35;;;20.90;99.90;;;;;;5110306;28;20039;-59
2023/06/21 08:16:17;;;;;;;13.98;10.27;;;21.10;99.90;;;;;;5111857;28;20139;-58
2023/06/21 08:18:43;;;;;;;13.50;10.45;;;21.40;99.90;;;;;;5108256;28;20036;-58
2023/06/21 08:21:09;;;;;;;13.95;9.00;;;21.40;99.90;;;;;;5107555;28;20051;-59
2023/06/21 08:23:34;;;;;;;12.68;8.18;;;21.50;99.90;;;;;;5109926;28;20079;-60
2023/06/21 08:26:00;;;;;;;14.23;7.90;;;21.60;99.90;;;;;;5116902;28;20047;-59
2023/06/21 08:28:26;;;;;;;11.95;8.13;;;21.80;99.90;;;;;;5105384;28;20507;-59
2023/06/21 08:30:52;;;;;;;13.27;9.10;;;21.70;99.90;;;;;;5105416;28;20103;-59
2023/06/21 08:33:17;;;;;;;13.35;7.93;;;21.60;99.90;;;;;;5104144;28;20048;-58
2023/06/21 08:35:43;;;;;;;12.85;8.20;;;21.80;99.90;;;;;;5108913;28;20043;-59
2023/06/21 08:38:09;;;;;;;10.35;7.63;;;21.70;99.90;;;;;;5104599;28;20032;-58
2023/06/21 08:40:37;;;;;;;11.57;8.52;;;21.60;99.90;;;;;;5103868;28;20055;-59
2023/06/21 08:43:03;;;;;;;13.30;8.15;;;21.50;99.90;;;;;;5108573;28;20044;-59
2023/06/21 08:45:29;;;;;;;12.30;7.53;;;21.60;99.90;;;;;;5098787;28;20042;-59
2023/06/21 08:48:02;;;;;;;14.00;7.03;;;21.80;99.90;;;;;;5107041;28;20524;-58
2023/06/21 08:50:29;;;;;;;10.90;6.47;;;22.00;99.90;;;;;;5101897;28;20068;-59
2023/06/21 08:52:57;;;;;;;12.30;7.22;;;21.80;99.90;;;;;;5106983;28;20483;-59
2023/06/21 08:55:25;;;;;;;10.32;6.65;;;21.50;99.90;;;;;;5106363;28;20036;-61
2023/06/21 08:57:58;;;;;;;12.23;6.53;;;21.60;99.90;;;;;;5108109;28;20047;-59
2023/06/21 09:00:34;;;;;;;11.43;6.28;;;21.90;99.90;;;;;;5102390;28;20097;-59
2023/06/21 09:03:08;;;;;;;11.35;5.85;;;22.10;99.90;;;;;;5105103;28;20039;-60
2023/06/21 09:05:41;;;;;;;12.30;6.03;;;22.30;99.90;;;;;;5101871;28;20040;-58
2023/06/21 09:08:07;;;;;;;10.82;5.68;;;22.40;99.90;;;;;;5103552;28;20151;-57
2023/06/21 09:10:34;;;;;;;9.55;5.85;;;22.40;99.90;;;;;;5099718;28;20059;-59
2023/06/21 09:13:02;;;;;;;8.40;5.00;;;22.20;99.90;;;;;;5104833;28;20044;-59
2023/06/21 09:15:29;;;;;;;9.18;5.25;;;22.50;99.90;;;;;;5101028;28;20044;-59
2023/06/21 09:17:56;;;;;;;11.80;6.85;;;22.50;99.90;;;;;;5117645;28;20073;-59
2023/06/21 09:20:27;;;;;;;10.05;6.28;;;22.60;99.90;;;;;;5113815;28;20091;-58
2023/06/21 09:22:53;;;;;;;8.80;6.00;;;22.80;99.90;;;;;;5111386;28;20074;-59
2023/06/21 09:25:19;;;;;;;11.18;6.72;;;23.00;99.90;;;;;;5099395;28;20052;-58
2023/06/21 09:27:45;;;;;;;14.52;7.28;;;23.10;99.90;;;;;;5096853;28;20056;-59
2023/06/21 09:30:10;;;;;;;10.20;5.95;;;23.10;99.90;;;;;;5097225;28;20044;-59
2023/06/21 09:32:36;;;;;;;10.90;6.60;;;23.10;99.90;;;;;;5100233;28;20036;-59
2023/06/21 09:35:02;;;;;;;11.15;7.05;;;22.80;99.90;;;;;;5108373;28;20046;-58
2023/06/21 09:37:33;;;;;;;8.52;5.60;;;22.60;99.90;;;;;;5096852;28;20048;-58
2023/06/21 09:39:59;;;;;;;9.77;5.75;;;22.50;99.90;;;;;;5096879;28;20051;-59
2023/06/21 09:42:27;;;;;;;10.65;6.53;;;22.40;99.90;;;;;;5101665;28;20046;-58
2023/06/21 09:44:54;;;;;;;10.68;6.72;;;22.50;99.90;;;;;;5108977;28;20046;-58
2023/06/21 09:47:20;;;;;;;11.48;6.32;;;22.70;99.90;;;;;;5097573;28;20098;-59
2023/06/21 09:49:46;;;;;;;10.20;6.25;;;22.80;99.90;;;;;;5097722;28;20123;-59
2023/06/21 09:52:14;;;;;;;9.35;5.88;;;22.80;99.90;;;;;;5097454;28;20483;-59
2023/06/21 09:54:44;;;;;;;10.40;6.03;;;23.20;99.90;;;;;;5096975;28;20052;-58
2023/06/21 09:57:10;;;;;;;8.88;5.47;;;22.80;99.90;;;;;;5097891;28;20054;-58
2023/06/21 09:59:37;;;;;;;10.35;6.07;;;22.90;99.90;;;;;;5097612;28;20055;-59
2023/06/21 10:02:04;;;;;;;10.70;6.13;;;22.90;99.90;;;;;;5097183;28;20040;-59
2023/06/21 10:04:37;;;;;;;10.38;6.38;;;23.20;99.90;;;;;;5097393;28;20052;-58
2023/06/21 10:07:03;;;;;;;12.48;7.05;;;23.10;99.90;;;;;;5096865;28;20048;-58
2023/06/21 10:09:38;;;;;;;11.77;6.95;;;22.90;99.90;;;;;;5096118;28;20032;-58
2023/06/21 10:12:05;;;;;;;11.13;6.60;;;23.00;99.90;;;;;;5096963;28;20123;-58
2023/06/21 10:14:30;;;;;;;9.88;6.82;;;23.00;99.90;;;;;;5097252;28;20055;-59
2023/06/21 10:16:57;;;;;;;9.57;6.70;;;23.00;99.90;;;;;;5096709;28;20064;-58
2023/06/21 10:19:29;;;;;;;10.65;6.90;;;22.80;99.90;;;;;;5097204;28;20040;-58
2023/06/21 10:21:57;;;;;;;10.85;7.07;;;23.00;99.90;;;;;;5100294;28;20478;-59
2023/06/21 10:24:26;;;;;;;10.40;6.28;;;23.00;99.90;;;;;;5100252;28;20500;-58
2023/06/21 10:26:53;;;;;;;10.35;6.15;;;22.80;99.90;;;;;;5101324;28;20200;-58
2023/06/21 10:29:20;;;;;;;9.82;5.38;;;23.00;99.90;;;;;;5102880;28;20073;-60
2023/06/21 10:31:49;;;;;;;10.48;5.53;;;23.40;99.90;;;;;;5107392;28;20048;-58
2023/06/21 10:34:20;;;;;;;10.43;6.10;;;23.80;99.90;;;;;;5109174;28;20055;-59
2023/06/21 10:36:51;;;;;;;9.23;6.32;;;23.30;99.90;;;;;;5100446;28;20063;-59
2023/06/21 10:39:19;;;;;;;10.00;6.03;;;23.30;99.90;;;;;;5100578;28;20164;-59
2023/06/21 10:41:45;;;;;;;9.02;4.90;;;23.50;99.90;;;;;;5100208;28;20454;-58
2023/06/21 10:44:11;;;;;;;10.52;5.55;;;23.80;99.90;;;;;;5100957;28;20079;-59
2023/06/21 10:46:41;;;;;;;9.25;5.30;;;24.10;99.90;;;;;;5111084;28;20040;-59
2023/06/21 10:49:07;;;;;;;8.40;4.70;;;24.00;99.90;;;;;;5099238;28;20085;-59
2023/06/21 10:51:36;;;;;;;8.23;4.20;;;24.00;99.90;;;;;;5100336;28;20376;-59
2023/06/21 10:54:02;;;;;;;11.10;4.72;;;23.90;99.90;;;;;;5100065;28;20044;-59
2023/06/21 10:56:29;;;;;;;10.48;4.10;;;24.00;99.90;;;;;;5100175;28;20087;-58
2023/06/21 10:58:55;;;;;;;8.57;4.30;;;24.10;99.90;;;;;;5109572;28;20194;-58
2023/06/21 11:01:21;;;;;;;7.38;4.43;;;23.80;99.90;;;;;;5115235;28;20065;-59
2023/06/21 11:03:48;;;;;;;8.73;4.95;;;23.70;99.90;;;;;;5106889;28;20036;-58
2023/06/21 11:06:29;;;;;;;7.72;4.05;;;23.40;99.90;;;;;;5105875;28;20600;-58
2023/06/21 11:09:08;;;;;;;9.15;4.70;;;24.00;99.90;;;;;;5099851;28;20081;-59
2023/06/21 11:11:37;;;;;;;7.72;4.55;;;24.20;99.90;;;;;;5099442;28;20044;-58
2023/06/21 11:14:04;;;;;;;8.27;4.32;;;24.20;99.90;;;;;;5100340;28;20046;-59
2023/06/21 11:16:32;;;;;;;8.02;4.60;;;24.10;99.90;;;;;;5099716;28;20151;-59
2023/06/21 11:19:09;;;;;;;8.25;4.30;;;24.20;99.90;;;;;;5109907;28;20101;-59
2023/06/21 11:21:40;;;;;;;8.77;4.88;;;24.40;99.90;;;;;;5111417;28;20091;-59
2023/06/21 11:24:08;;;;;;;8.13;4.40;;;24.70;99.90;;;;;;5111019;28;20074;-58
2023/06/21 11:26:57;;;;;;;7.15;4.20;;;24.40;99.90;;;;;;5116249;28;20039;-59
2023/06/21 11:29:26;;;;;;;10.75;4.88;;;24.20;99.90;;;;;;5112383;28;20056;-58
2023/06/21 11:32:08;;;;;;;8.65;4.50;;;24.10;99.90;;;;;;5114245;28;20105;-59
2023/06/21 11:34:33;;;;;;;8.02;4.55;;;24.30;99.90;;;;;;5108472;28;20107;-59
2023/06/21 11:37:34;;;;;;;8.55;5.07;;;24.40;99.90;;;;;;5108608;28;20036;-59
2023/06/21 11:40:01;;;;;;;9.18;4.40;;;24.40;99.90;;;;;;5117567;28;20043;-59
2023/06/21 11:42:31;;;;;;;7.93;3.80;;;24.20;99.90;;;;;;5117925;28;20040;-58
2023/06/21 11:45:22;;;;;;;9.77;5.68;;;24.40;99.90;;;;;;5119180;28;20471;-57
2023/06/21 11:48:18;;;;;;;10.82;6.38;;;24.70;99.90;;;;;;5110530;28;20067;-59
2023/06/21 11:50:46;;;;;;;9.40;5.18;;;24.20;99.90;;;;;;5105975;28;20085;-59
2023/06/21 11:53:23;;;;;;;10.13;6.47;;;24.40;99.90;;;;;;5114601;28;20031;-59
2023/06/21 11:56:02;;;;;;;9.77;6.78;;;23.90;99.90;;;;;;5111467;28;20043;-59
2023/06/21 11:58:29;;;;;;;10.40;7.20;;;23.90;99.90;;;;;;5099687;28;20040;-59
2023/06/21 12:00:55;;;;;;;10.30;6.80;;;24.00;99.90;;;;;;5098564;28;20043;-59
2023/06/21 12:03:25;;;;;;;11.85;7.30;;;24.10;99.90;;;;;;5098576;28;20131;-59
2023/06/21 12:05:50;;;;;;;11.25;6.70;;;23.90;99.90;;;;;;5098860;28;20088;-59
2023/06/21 12:08:27;;;;;;;11.55;7.93;;;24.30;99.90;;;;;;5099145;28;20054;-59
2023/06/21 12:10:57;;;;;;;12.07;9.68;;;24.30;99.90;;;;;;5098635;28;20040;-58
2023/06/21 12:13:23;;;;;;;11.98;8.38;;;24.10;99.90;;;;;;5098776;28;20137;-59
2023/06/21 12:15:52;;;;;;;11.20;8.50;;;24.50;99.90;;;;;;5098578;28;20044;-58
2023/06/21 12:18:18;;;;;;;13.23;8.43;;;24.30;99.90;;;;;;5099174;28;20051;-58
2023/06/21 12:20:44;;;;;;;11.40;8.23;;;24.10;99.90;;;;;;5097209;28;20048;-59
2023/06/21 12:23:10;;;;;;;10.05;7.95;;;24.00;99.90;;;;;;5098686;28;20047;-58
2023/06/21 12:25:47;;;;;;;11.18;8.23;;;23.80;99.90;;;;;;5098677;28;20046;-59
2023/06/21 12:28:13;;;;;;;12.13;7.30;;;23.80;99.90;;;;;;5098440;28;20060;-58
2023/06/21 12:31:08;;;;;;;10.85;8.15;;;23.90;99.90;;;;;;5098261;28;20083;-59
2023/06/21 12:33:40;;;;;;;12.35;8.48;;;23.70;99.90;;;;;;5097952;28;20040;-59